KHUL/HUL METAR and TAF weather

Enter ICAO airport designator
Station Type Date Time Source
KHUL METAR 2019/08/21 02:53 UTC NOAA

KHUL 210253Z AUTO 20005KT 10SM CLR 16/13 A2999 RMK AO2 SLP156 T01610133 51007


Station Type Date Time Source
KHUL Decoded METAR 2019/08/21 02:53 UTC NOAA

Station name not available
Aug 20, 2019 - 10:53 PM EDT / 2019.08.21 0253 UTC
Wind: from the SSW (200 degrees) at 6 MPH (5 KT):0
Visibility: 10 mile(s):0
Sky conditions: clear
Temperature: 61.0 F (16.1 C)
Dew Point: 55.9 F (13.3 C)
Relative Humidity: 83%
Pressure (altimeter): 29.99 in. Hg (1015 hPa)
Pressure tendency: 0.02 inches (0.7 hPa) higher than three hours ago
ob: KHUL 210253Z AUTO 20005KT 10SM CLR 16/13 A2999 RMK AO2 SLP156 T01610133 51007
cycle: 3

Station Type Date Time Source
KHUL TAF 2019/08/20 18:28 UTC NOAA

TAF KHUL 201726Z 2018/2118 23006KT P6SM SKC
FM211600 20010KT P6SM BKN080

Example: see airport list